Time;durP1;ratioP1;P1;durP2;ratioP2;P2;SDS_P1;SDS_P2;PMS_P1;PMS_P2;Temp;Humidity;BMP_temperature;BMP_pressure;BME280_temperature;BME280_humidity;BME280_pressure;Samples;Min_cycle;Max_cycle;Signal;HPM_P1;HPM_P2
2024/03/26 00:00:10;;;;;;;0.90;0.70;;;;;;;3.39;100.00;91171.28;2113612;28;20519;-84
2024/03/26 00:01:11;;;;;;;0.75;0.60;;;;;;;3.23;100.00;91172.06;2101854;27;20037;-84
2024/03/26 00:02:12;;;;;;;0.95;0.73;;;;;;;3.26;100.00;91173.88;2104729;28;20831;-84
2024/03/26 00:03:14;;;;;;;0.80;0.80;;;;;;;3.23;100.00;91173.97;2089901;28;20028;-84
2024/03/26 00:04:15;;;;;;;0.85;0.80;;;;;;;3.22;100.00;91169.84;2085642;28;20185;-83
2024/03/26 00:05:16;;;;;;;0.60;0.60;;;;;;;3.30;100.00;91173.81;2098206;28;20502;-84
2024/03/26 00:06:19;;;;;;;0.60;0.60;;;;;;;3.15;100.00;91165.50;2083755;28;21040;-84
2024/03/26 00:07:20;;;;;;;0.70;0.63;;;;;;;3.26;100.00;91159.94;2089586;28;20091;-84
2024/03/26 00:08:21;;;;;;;0.70;0.70;;;;;;;3.21;100.00;91165.75;2059316;28;20144;-84
2024/03/26 00:09:22;;;;;;;0.70;0.60;;;;;;;3.05;100.00;91153.31;2089812;28;20343;-84
2024/03/26 00:10:24;;;;;;;0.88;0.80;;;;;;;2.89;100.00;91159.34;2071288;28;20025;-84
2024/03/26 00:11:25;;;;;;;0.60;0.60;;;;;;;2.84;100.00;91162.50;2089832;28;20501;-84
2024/03/26 00:12:26;;;;;;;1.10;0.65;;;;;;;3.01;100.00;91157.94;2075872;28;20048;-84
2024/03/26 00:13:27;;;;;;;0.65;0.65;;;;;;;3.02;100.00;91167.34;2102786;28;20377;-84
2024/03/26 00:14:28;;;;;;;0.85;0.60;;;;;;;3.07;100.00;91163.44;2086615;28;20036;-84
2024/03/26 00:15:29;;;;;;;0.82;0.70;;;;;;;3.08;100.00;91173.59;2084946;28;20071;-84
2024/03/26 00:16:31;;;;;;;0.70;0.60;;;;;;;3.14;100.00;91171.19;2090081;28;20029;-84
2024/03/26 00:17:32;;;;;;;0.60;0.60;;;;;;;3.18;100.00;91162.03;2068759;28;20041;-84
2024/03/26 00:18:33;;;;;;;0.70;0.60;;;;;;;3.22;100.00;91167.97;2097769;28;20017;-84
2024/03/26 00:19:34;;;;;;;1.20;0.70;;;;;;;3.02;100.00;91167.34;2070930;28;20036;-84
2024/03/26 00:20:35;;;;;;;0.88;0.80;;;;;;;3.08;100.00;91167.59;2098212;28;20031;-85
2024/03/26 00:21:37;;;;;;;1.08;0.65;;;;;;;3.14;100.00;91168.56;2069382;28;20021;-85
2024/03/26 00:22:39;;;;;;;1.20;0.80;;;;;;;3.17;100.00;91165.09;2098106;28;20043;-84
2024/03/26 00:23:40;;;;;;;1.00;0.80;;;;;;;3.25;100.00;91172.41;2106378;28;20036;-84
2024/03/26 00:24:41;;;;;;;0.82;0.80;;;;;;;3.33;100.00;91172.22;2076040;28;20032;-84
2024/03/26 00:25:42;;;;;;;0.70;0.70;;;;;;;3.30;100.00;91168.53;2089302;28;20068;-84
2024/03/26 00:26:45;;;;;;;0.57;0.50;;;;;;;3.12;100.00;91163.69;2065121;28;20033;-85
2024/03/26 00:27:46;;;;;;;0.70;0.70;;;;;;;3.12;100.00;91166.34;2088645;28;20029;-84
2024/03/26 00:28:47;;;;;;;1.30;0.70;;;;;;;3.12;100.00;91163.69;2074919;28;20102;-84
2024/03/26 00:29:48;;;;;;;0.70;0.70;;;;;;;3.18;100.00;91163.94;2065027;28;20111;-85
2024/03/26 00:30:49;;;;;;;0.90;0.57;;;;;;;3.28;100.00;91157.63;2086435;28;20025;-84
2024/03/26 00:31:50;;;;;;;0.90;0.70;;;;;;;3.18;100.00;91158.66;2075346;28;20043;-83
2024/03/26 00:32:51;;;;;;;1.00;0.60;;;;;;;3.01;100.00;91161.31;2089016;28;20064;-84
2024/03/26 00:33:52;;;;;;;1.20;0.65;;;;;;;3.16;100.00;91160.94;2094398;28;20380;-85
2024/03/26 00:34:53;;;;;;;0.88;0.85;;;;;;;3.29;100.00;91159.09;2088480;28;20523;-84
2024/03/26 00:35:54;;;;;;;0.60;0.50;;;;;;;3.19;100.00;91160.84;2097707;28;20061;-84
2024/03/26 00:36:55;;;;;;;0.50;0.50;;;;;;;3.24;100.00;91155.06;2083796;28;20040;-84
2024/03/26 00:37:56;;;;;;;0.60;0.60;;;;;;;2.94;100.00;91155.47;2105530;28;20020;-84
2024/03/26 00:38:58;;;;;;;0.63;0.60;;;;;;;3.12;100.00;91155.03;2072742;28;20568;-84
2024/03/26 00:39:59;;;;;;;0.50;0.50;;;;;;;3.17;100.00;91146.63;2087187;28;20025;-85
2024/03/26 00:41:00;;;;;;;0.60;0.60;;;;;;;3.18;100.00;91151.47;2080090;28;20060;-85
2024/03/26 00:42:02;;;;;;;0.60;0.60;;;;;;;3.25;100.00;91155.84;2069813;28;20434;-84
2024/03/26 00:43:03;;;;;;;0.68;0.68;;;;;;;3.08;100.00;91151.75;2081437;28;20106;-83
2024/03/26 00:44:04;;;;;;;0.60;0.60;;;;;;;3.11;100.00;91146.38;2078663;28;20036;-84
2024/03/26 00:45:05;;;;;;;0.55;0.55;;;;;;;2.86;100.00;91152.28;2076816;28;20079;-84
2024/03/26 00:46:06;;;;;;;0.63;0.63;;;;;;;3.09;100.00;91147.94;2077239;28;20615;-84
2024/03/26 00:47:07;;;;;;;0.65;0.65;;;;;;;2.91;100.00;91146.50;2086410;28;20052;-84
2024/03/26 00:48:08;;;;;;;0.60;0.60;;;;;;;2.99;100.00;91147.81;2106150;28;20024;-84
2024/03/26 00:49:09;;;;;;;0.70;0.65;;;;;;;2.90;100.00;91150.31;2095636;28;20105;-85
2024/03/26 00:50:11;;;;;;;0.70;0.70;;;;;;;2.78;100.00;91140.44;2091467;28;20028;-84
2024/03/26 00:51:12;;;;;;;0.75;0.63;;;;;;;2.92;100.00;91137.44;2104924;28;20035;-84
2024/03/26 00:52:13;;;;;;;0.50;0.50;;;;;;;2.97;100.00;91139.56;2091696;28;20032;-83
2024/03/26 00:53:14;;;;;;;0.68;0.60;;;;;;;3.07;100.00;91134.41;2105769;28;20023;-84
2024/03/26 00:54:15;;;;;;;0.50;0.50;;;;;;;3.31;100.00;91134.94;2080877;28;20058;-84
2024/03/26 00:55:16;;;;;;;0.90;0.60;;;;;;;3.01;100.00;91131.56;2083028;28;20493;-84
2024/03/26 00:56:17;;;;;;;0.68;0.68;;;;;;;2.99;100.00;91133.88;2095708;28;20084;-84
2024/03/26 00:57:18;;;;;;;0.60;0.60;;;;;;;3.03;100.00;91124.72;2076682;28;20567;-84
2024/03/26 00:58:19;;;;;;;0.60;0.60;;;;;;;3.09;100.00;91129.47;2095566;28;20036;-84
2024/03/26 00:59:22;;;;;;;0.82;0.70;;;;;;;3.03;100.00;91124.72;2080200;28;20104;-84
2024/03/26 01:00:23;;;;;;;0.60;0.60;;;;;;;3.16;100.00;91129.28;2088900;28;20028;-84
2024/03/26 01:01:24;;;;;;;1.42;0.70;;;;;;;3.02;100.00;91123.22;2090919;28;20031;-84
2024/03/26 01:02:25;;;;;;;0.60;0.60;;;;;;;3.10;100.00;91129.06;2091305;28;20042;-84
2024/03/26 01:03:26;;;;;;;0.70;0.70;;;;;;;3.28;100.00;91125.94;2097597;28;20028;-84
2024/03/26 01:04:28;;;;;;;0.68;0.60;;;;;;;3.28;100.00;91123.31;2067705;28;20568;-84
2024/03/26 01:05:29;;;;;;;0.63;0.57;;;;;;;3.47;100.00;91119.03;2081116;28;20105;-85
2024/03/26 01:06:30;;;;;;;1.15;0.80;;;;;;;3.53;100.00;91117.34;2083137;28;20071;-83
2024/03/26 01:07:31;;;;;;;0.55;0.55;;;;;;;3.47;100.00;91119.78;2082557;28;20025;-84
2024/03/26 01:08:32;;;;;;;0.70;0.60;;;;;;;3.39;100.00;91121.13;2096379;28;20104;-84
2024/03/26 01:09:33;;;;;;;1.27;0.70;;;;;;;3.30;100.00;91120.25;2082359;28;20036;-83
2024/03/26 01:10:34;;;;;;;1.00;0.60;;;;;;;3.52;100.00;91116.59;2081014;28;20112;-84
2024/03/26 01:11:35;;;;;;;0.60;0.60;;;;;;;3.56;100.00;91113.88;2081705;28;20196;-84
2024/03/26 01:12:36;;;;;;;0.55;0.55;;;;;;;3.39;100.00;91115.09;2078926;28;20090;-85
2024/03/26 01:13:37;;;;;;;0.95;0.80;;;;;;;3.34;100.00;91120.91;2079942;28;20103;-84
2024/03/26 01:14:38;;;;;;;0.57;0.57;;;;;;;3.36;100.00;91121.22;2077655;28;20435;-84
2024/03/26 01:15:39;;;;;;;0.80;0.60;;;;;;;3.35;100.00;91122.38;2105705;28;20032;-84
2024/03/26 01:16:40;;;;;;;1.42;0.57;;;;;;;3.19;100.00;91123.16;2092875;28;20047;-84
2024/03/26 01:17:41;;;;;;;0.88;0.88;;;;;;;3.45;100.00;91113.41;2089368;28;20025;-83
2024/03/26 01:18:42;;;;;;;0.60;0.50;;;;;;;3.58;100.00;91116.81;2065312;28;20037;-85
2024/03/26 01:19:43;;;;;;;0.40;0.40;;;;;;;3.60;100.00;91111.88;2080511;28;20468;-84
2024/03/26 01:20:44;;;;;;;0.60;0.60;;;;;;;3.42;100.00;91111.59;2098565;28;20040;-84
2024/03/26 01:21:47;;;;;;;1.00;0.65;;;;;;;3.45;100.00;91116.06;2091537;28;20040;-84
2024/03/26 01:22:48;;;;;;;0.70;0.70;;;;;;;3.56;100.00;91113.88;2105149;28;20028;-84
2024/03/26 01:23:49;;;;;;;0.60;0.60;;;;;;;3.54;100.00;91111.63;2081204;28;20119;-84
2024/03/26 01:24:50;;;;;;;0.70;0.70;;;;;;;3.59;100.00;91107.72;2097235;28;20025;-85
2024/03/26 01:25:51;;;;;;;0.80;0.80;;;;;;;3.61;100.00;91104.69;2079261;28;20033;-84
2024/03/26 01:26:52;;;;;;;0.57;0.57;;;;;;;3.51;100.00;91107.22;2072869;28;25606;-84
2024/03/26 01:27:53;;;;;;;0.75;0.75;;;;;;;3.59;100.00;91107.00;2083858;28;20021;-84
2024/03/26 01:28:54;;;;;;;0.80;0.77;;;;;;;3.16;100.00;91098.38;2067258;28;20082;-84
2024/03/26 01:29:55;;;;;;;0.55;0.55;;;;;;;3.37;100.00;91097.03;2073849;28;20408;-83
2024/03/26 01:30:56;;;;;;;0.70;0.70;;;;;;;3.46;100.00;91091.84;2084428;28;20469;-84
2024/03/26 01:31:57;;;;;;;1.17;0.70;;;;;;;3.56;100.00;91098.03;2069404;28;20032;-85
2024/03/26 01:32:58;;;;;;;0.50;0.50;;;;;;;3.59;100.00;91091.88;2113360;28;20095;-84
2024/03/26 01:33:59;;;;;;;0.68;0.68;;;;;;;3.66;100.00;91096.22;2085487;28;20040;-84
2024/03/26 01:35:00;;;;;;;0.80;0.80;;;;;;;3.46;100.00;91085.84;2080734;28;20478;-84
2024/03/26 01:36:01;;;;;;;0.75;0.75;;;;;;;3.43;100.00;91084.78;2094210;28;20024;-85
2024/03/26 01:37:02;;;;;;;0.73;0.60;;;;;;;3.41;100.00;91081.81;2098510;28;20520;-83
2024/03/26 01:38:03;;;;;;;0.73;0.60;;;;;;;3.34;100.00;91084.69;2105748;28;20024;-84
2024/03/26 01:39:05;;;;;;;0.63;0.60;;;;;;;3.37;100.00;91075.91;2074089;28;20128;-85
2024/03/26 01:40:10;;;;;;;0.70;0.70;;;;;;;3.46;100.00;91073.38;2097337;28;20496;-84
2024/03/26 01:41:11;;;;;;;0.80;0.70;;;;;;;3.35;100.00;91082.78;2076838;28;20025;-84
2024/03/26 01:42:12;;;;;;;0.70;0.60;;;;;;;3.29;100.00;91082.53;2097413;28;20024;-85
2024/03/26 01:43:14;;;;;;;0.55;0.55;;;;;;;3.26;100.00;91076.19;2075943;28;20028;-84
2024/03/26 01:44:14;;;;;;;0.60;0.60;;;;;;;3.33;100.00;91074.50;2078510;28;20402;-85
2024/03/26 01:45:16;;;;;;;0.73;0.70;;;;;;;3.01;100.00;91066.31;2087231;28;20786;-84
2024/03/26 01:46:17;;;;;;;0.63;0.63;;;;;;;3.09;100.00;91069.50;2084364;28;20028;-85
2024/03/26 01:47:18;;;;;;;0.82;0.70;;;;;;;2.94;100.00;91077.06;2099725;28;20055;-84
2024/03/26 01:48:19;;;;;;;0.70;0.70;;;;;;;2.89;100.00;91066.28;2083255;28;20021;-84
2024/03/26 01:49:20;;;;;;;0.80;0.60;;;;;;;3.10;100.00;91067.59;2077201;28;20462;-84
2024/03/26 01:50:21;;;;;;;0.85;0.60;;;;;;;3.25;100.00;91060.78;2086621;28;20032;-85
2024/03/26 01:51:22;;;;;;;0.60;0.60;;;;;;;3.25;100.00;91061.53;2090627;28;20090;-84
2024/03/26 01:52:26;;;;;;;0.55;0.55;;;;;;;3.24;100.00;91060.03;2103284;28;20162;-84
2024/03/26 01:53:28;;;;;;;1.70;0.77;;;;;;;3.25;100.00;91058.16;2080889;28;20020;-83
2024/03/26 01:54:29;;;;;;;0.65;0.65;;;;;;;3.12;100.00;91054.75;2085990;28;20027;-85
2024/03/26 01:55:30;;;;;;;0.60;0.60;;;;;;;3.34;100.00;91054.91;2098252;28;20197;-84
2024/03/26 01:56:32;;;;;;;1.17;0.70;;;;;;;3.16;100.00;91055.38;2078283;28;20028;-84
2024/03/26 01:57:36;;;;;;;0.60;0.60;;;;;;;3.08;100.00;91060.13;2097188;28;20467;-84
2024/03/26 01:58:37;;;;;;;0.52;0.52;;;;;;;3.15;100.00;91057.25;2092237;28;20037;-84
2024/03/26 01:59:39;;;;;;;0.90;0.68;;;;;;;3.34;100.00;91050.34;2087835;28;20031;-84
2024/03/26 02:00:42;;;;;;;0.68;0.60;;;;;;;3.18;100.00;91059.06;2096237;28;20504;-84
2024/03/26 02:01:43;;;;;;;0.80;0.80;;;;;;;3.24;100.00;91046.09;2082099;28;20039;-85
2024/03/26 02:02:44;;;;;;;0.60;0.60;;;;;;;3.28;100.00;91049.38;2105289;28;20109;-85
2024/03/26 02:03:45;;;;;;;0.50;0.50;;;;;;;3.43;100.00;91049.72;2092923;28;20024;-84
2024/03/26 02:04:47;;;;;;;0.60;0.60;;;;;;;3.36;100.00;91047.28;2083235;28;20489;-84
2024/03/26 02:05:48;;;;;;;0.70;0.70;;;;;;;3.43;100.00;91047.09;2078491;28;20045;-84
2024/03/26 02:06:50;;;;;;;0.70;0.70;;;;;;;3.40;100.00;91045.28;2072981;28;20494;-85
2024/03/26 02:07:51;;;;;;;0.60;0.60;;;;;;;3.21;100.00;91042.41;2076349;28;20044;-84
2024/03/26 02:08:55;;;;;;;0.77;0.50;;;;;;;3.22;100.00;91049.16;2090394;28;20043;-83
2024/03/26 02:09:56;;;;;;;0.85;0.60;;;;;;;3.32;100.00;91044.72;2082633;28;20036;-84
2024/03/26 02:10:57;;;;;;;0.60;0.60;;;;;;;3.26;100.00;91043.78;2104765;28;20036;-84
2024/03/26 02:11:58;;;;;;;0.50;0.50;;;;;;;3.35;100.00;91037.88;2075092;28;20079;-85
2024/03/26 02:12:59;;;;;;;0.80;0.52;;;;;;;3.35;100.00;91043.91;2084696;28;20490;-85
2024/03/26 02:14:00;;;;;;;1.05;0.70;;;;;;;3.31;100.00;91037.97;2105503;28;20062;-85
2024/03/26 02:15:01;;;;;;;0.60;0.60;;;;;;;3.36;100.00;91042.75;2074918;28;20106;-85
2024/03/26 02:16:02;;;;;;;0.60;0.60;;;;;;;3.50;100.00;91046.88;2088622;28;20040;-84
2024/03/26 02:17:05;;;;;;;0.90;0.50;;;;;;;3.37;100.00;91048.75;2085727;28;20037;-85
2024/03/26 02:18:06;;;;;;;0.80;0.80;;;;;;;3.27;100.00;91037.34;2077349;28;20041;-84
2024/03/26 02:19:08;;;;;;;0.60;0.60;;;;;;;3.30;100.00;91039.16;2104296;28;20027;-85
2024/03/26 02:20:12;;;;;;;0.82;0.82;;;;;;;3.38;100.00;91039.66;2088379;28;20660;-84
2024/03/26 02:21:14;;;;;;;0.93;0.70;;;;;;;3.31;100.00;91034.59;2097360;28;20111;-84
2024/03/26 02:22:15;;;;;;;0.90;0.70;;;;;;;3.17;100.00;91043.66;2090576;28;20508;-84
2024/03/26 02:23:22;;;;;;;0.70;0.70;;;;;;;3.17;100.00;91039.13;2082271;28;20024;-84
2024/03/26 02:24:25;;;;;;;0.75;0.73;;;;;;;3.46;100.00;91044.31;2087995;28;20041;-84
2024/03/26 02:27:26;;;;;;;0.50;0.50;;;;;;;1.70;100.00;91039.41;2107381;27;20161;-82
2024/03/26 02:28:28;;;;;;;0.50;0.50;;;;;;;1.71;100.00;91042.78;2109158;28;20031;-85
2024/03/26 02:29:29;;;;;;;0.85;0.63;;;;;;;1.73;100.00;91043.84;2096211;28;20025;-84
2024/03/26 02:30:31;;;;;;;0.60;0.60;;;;;;;1.74;100.00;91034.78;2073465;28;20029;-85
2024/03/26 02:31:32;;;;;;;0.70;0.70;;;;;;;1.84;100.00;91027.78;2105910;28;20143;-84
2024/03/26 02:32:33;;;;;;;0.63;0.55;;;;;;;1.69;100.00;91040.56;2093422;28;20058;-84
2024/03/26 02:33:34;;;;;;;0.60;0.60;;;;;;;1.87;100.00;91037.50;2106481;28;20035;-85
2024/03/26 02:34:35;;;;;;;0.50;0.50;;;;;;;2.00;100.00;91035.69;2079652;28;20088;-86
2024/03/26 02:35:36;;;;;;;0.80;0.70;;;;;;;1.90;100.00;91041.97;2080696;28;20384;-87
2024/03/26 02:36:37;;;;;;;0.50;0.50;;;;;;;1.86;100.00;91040.56;2091273;28;20060;-83
2024/03/26 02:37:38;;;;;;;0.60;0.60;;;;;;;1.82;100.00;91037.28;2086595;28;23388;-86
2024/03/26 02:38:39;;;;;;;0.70;0.70;;;;;;;2.04;100.00;91040.16;2096204;28;20021;-83
2024/03/26 02:39:40;;;;;;;0.50;0.50;;;;;;;1.98;100.00;91038.03;2080703;28;20673;-85
2024/03/26 02:40:41;;;;;;;0.60;0.60;;;;;;;1.94;100.00;91039.25;2087821;28;20425;-85
2024/03/26 02:41:42;;;;;;;0.50;0.50;;;;;;;1.96;100.00;91036.94;2081509;28;20388;-84
2024/03/26 02:42:44;;;;;;;1.17;0.70;;;;;;;1.87;100.00;91037.50;2079451;28;20029;-83
2024/03/26 02:43:47;;;;;;;0.70;0.70;;;;;;;1.76;100.00;91037.03;2086970;28;20040;-87
2024/03/26 02:44:48;;;;;;;0.60;0.60;;;;;;;1.98;100.00;91029.38;2094382;28;20024;-84
2024/03/26 02:45:49;;;;;;;0.55;0.55;;;;;;;2.07;100.00;91028.81;2087987;28;20059;-86
2024/03/26 02:46:57;;;;;;;1.50;0.70;;;;;;;2.08;100.00;91019.72;2084768;28;20094;-84
2024/03/26 02:47:58;;;;;;;0.77;0.70;;;;;;;1.93;100.00;91021.94;2087444;28;20051;-82
2024/03/26 02:48:59;;;;;;;1.15;0.57;;;;;;;2.13;100.00;91017.34;2087836;28;20126;-87
2024/03/26 02:50:00;;;;;;;0.77;0.60;;;;;;;2.03;100.00;91026.25;2085725;28;20028;-87
2024/03/26 02:51:01;;;;;;;0.50;0.50;;;;;;;1.88;100.00;91019.81;2112893;28;20051;-86
2024/03/26 02:52:02;;;;;;;0.77;0.77;;;;;;;2.23;100.00;91012.94;2096331;28;20024;-84
2024/03/26 02:53:03;;;;;;;0.68;0.68;;;;;;;2.25;100.00;91015.94;2103399;28;20082;-86
2024/03/26 02:54:04;;;;;;;0.65;0.60;;;;;;;2.20;100.00;91011.16;2075512;28;20021;-84
2024/03/26 02:55:05;;;;;;;0.60;0.60;;;;;;;2.31;100.00;91014.25;2094964;28;20032;-84
2024/03/26 02:56:07;;;;;;;0.63;0.63;;;;;;;2.23;100.00;91018.22;2077397;28;20116;-86
2024/03/26 02:57:08;;;;;;;0.60;0.60;;;;;;;2.36;100.00;91013.75;2079653;28;20092;-85
2024/03/26 02:58:09;;;;;;;0.93;0.60;;;;;;;2.23;100.00;91015.59;2096218;28;20497;-82
2024/03/26 02:59:10;;;;;;;0.75;0.70;;;;;;;2.14;100.00;91007.53;2096804;28;20048;-85
2024/03/26 03:00:11;;;;;;;0.50;0.50;;;;;;;2.52;100.00;91010.34;2080586;28;20037;-84
2024/03/26 03:01:14;;;;;;;0.65;0.65;;;;;;;2.37;100.00;91009.97;2096098;28;20025;-84
2024/03/26 03:02:15;;;;;;;0.70;0.70;;;;;;;2.46;100.00;91002.22;2086925;28;20040;-84
2024/03/26 03:03:16;;;;;;;0.60;0.60;;;;;;;2.45;100.00;91015.78;2095514;28;20033;-83
2024/03/26 03:04:17;;;;;;;0.60;0.60;;;;;;;2.33;100.00;91009.31;2087865;28;20029;-85
2024/03/26 03:05:18;;;;;;;0.63;0.63;;;;;;;2.25;100.00;91005.38;2103992;28;20141;-86
2024/03/26 03:06:19;;;;;;;0.70;0.70;;;;;;;2.34;100.00;91008.16;2078123;28;20478;-83
2024/03/26 03:07:30;;;;;;;0.60;0.60;;;;;;;2.19;100.00;90999.13;2079503;28;20552;-85
2024/03/26 03:08:31;;;;;;;0.98;0.60;;;;;;;2.19;100.00;91014.94;2105637;28;20036;-85
2024/03/26 03:09:32;;;;;;;0.50;0.50;;;;;;;2.21;100.00;91010.00;2093470;28;20024;-84
2024/03/26 03:10:33;;;;;;;0.85;0.70;;;;;;;2.28;100.00;90999.25;2084513;28;20032;-84
2024/03/26 03:11:34;;;;;;;0.70;0.65;;;;;;;2.37;100.00;90998.66;2087736;28;20405;-84
2024/03/26 03:12:35;;;;;;;0.60;0.60;;;;;;;2.41;100.00;91001.94;2074156;28;20033;-81
2024/03/26 03:13:36;;;;;;;0.70;0.70;;;;;;;2.20;100.00;90993.44;2112672;28;20089;-84
2024/03/26 03:14:37;;;;;;;0.57;0.57;;;;;;;2.25;100.00;90995.56;2090637;28;20095;-84
2024/03/26 03:15:38;;;;;;;0.70;0.70;;;;;;;2.28;100.00;90996.63;2087926;28;20025;-84
2024/03/26 03:16:39;;;;;;;0.60;0.60;;;;;;;2.37;100.00;91003.94;2065232;28;20018;-84
2024/03/26 03:17:41;;;;;;;0.90;0.70;;;;;;;2.35;100.00;91007.00;2079739;28;20025;-84
2024/03/26 03:18:42;;;;;;;0.93;0.70;;;;;;;2.42;100.00;91006.81;2086179;28;20143;-87
2024/03/26 03:19:43;;;;;;;0.75;0.60;;;;;;;2.48;100.00;91005.16;2094055;28;24303;-84
2024/03/26 03:20:44;;;;;;;0.75;0.70;;;;;;;2.51;100.00;90993.03;2095931;28;20556;-84
2024/03/26 03:21:45;;;;;;;0.63;0.63;;;;;;;2.49;100.00;90993.44;2078872;28;20132;-85
2024/03/26 03:22:46;;;;;;;0.73;0.73;;;;;;;2.39;100.00;90999.75;2078903;28;20036;-84
2024/03/26 03:23:47;;;;;;;0.85;0.60;;;;;;;2.38;100.00;90997.53;2095722;28;20032;-84
2024/03/26 03:24:48;;;;;;;0.50;0.50;;;;;;;2.41;100.00;90994.03;2076502;28;21121;-87
2024/03/26 03:25:56;;;;;;;1.20;0.60;;;;;;;2.44;100.00;90993.97;2087727;28;20076;-84
2024/03/26 03:26:57;;;;;;;0.60;0.60;;;;;;;2.64;100.00;90998.38;2079935;28;20562;-86
2024/03/26 03:28:14;;;;;;;0.50;0.50;;;;;;;2.69;100.00;91001.22;2079750;28;20377;-85
2024/03/26 03:29:15;;;;;;;0.68;0.68;;;;;;;2.70;100.00;90994.78;2098042;28;20017;-86
2024/03/26 03:30:16;;;;;;;1.65;0.50;;;;;;;2.67;100.00;91000.88;2084628;28;20025;-85
2024/03/26 03:31:17;;;;;;;0.60;0.60;;;;;;;2.73;100.00;90998.50;2110602;28;20030;-86
2024/03/26 03:32:18;;;;;;;1.00;0.80;;;;;;;2.79;100.00;91002.09;2088372;28;20492;-86
2024/03/26 03:33:20;;;;;;;0.60;0.60;;;;;;;2.78;100.00;91003.25;2079643;28;20031;-83
2024/03/26 03:34:21;;;;;;;0.57;0.57;;;;;;;2.72;100.00;91007.53;2087613;28;20029;-85
2024/03/26 03:35:22;;;;;;;0.50;0.50;;;;;;;2.88;100.00;90999.56;2078207;28;20029;-84
2024/03/26 03:36:24;;;;;;;0.60;0.60;;;;;;;2.70;100.00;91005.34;2087555;28;20037;-84
2024/03/26 03:37:25;;;;;;;0.50;0.50;;;;;;;2.81;100.00;91004.31;2083003;28;20037;-83
2024/03/26 03:38:26;;;;;;;0.60;0.60;;;;;;;2.80;100.00;91003.56;2098598;28;20028;-83
2024/03/26 03:39:27;;;;;;;0.68;0.60;;;;;;;2.85;100.00;91010.22;2098493;28;20107;-85
2024/03/26 03:40:28;;;;;;;0.75;0.75;;;;;;;2.80;100.00;90995.66;2080442;28;20037;-84
2024/03/26 03:41:29;;;;;;;0.60;0.60;;;;;;;2.76;100.00;91010.84;2090071;28;20462;-86
2024/03/26 03:42:30;;;;;;;0.70;0.70;;;;;;;2.93;100.00;91012.25;2073458;28;20489;-83
2024/03/26 03:43:31;;;;;;;0.60;0.60;;;;;;;3.01;100.00;91002.25;2072823;28;20094;-84
2024/03/26 03:44:35;;;;;;;0.55;0.55;;;;;;;3.03;100.00;91008.59;2087426;28;20021;-84
2024/03/26 03:45:37;;;;;;;0.80;0.80;;;;;;;3.06;100.00;91008.91;2078513;28;20025;-83
2024/03/26 03:46:38;;;;;;;0.57;0.57;;;;;;;3.08;100.00;91002.06;2098367;28;20013;-86
2024/03/26 03:47:39;;;;;;;1.35;0.75;;;;;;;3.10;100.00;91004.25;2067346;28;20029;-85
2024/03/26 03:48:46;;;;;;;0.77;0.65;;;;;;;3.11;100.00;90995.91;2090504;28;20450;-85
2024/03/26 03:49:48;;;;;;;0.60;0.55;;;;;;;3.00;100.00;90998.88;2086777;28;20036;-84
2024/03/26 03:50:49;;;;;;;0.50;0.50;;;;;;;3.06;100.00;90993.06;2091858;28;20078;-85
2024/03/26 03:51:51;;;;;;;0.63;0.57;;;;;;;3.10;100.00;91002.34;2073810;28;20032;-85
2024/03/26 03:52:52;;;;;;;0.70;0.70;;;;;;;3.08;100.00;90998.69;1998360;28;22521;-84
2024/03/26 03:53:53;;;;;;;1.35;0.60;;;;;;;2.82;100.00;90998.63;2004975;28;20033;-86
2024/03/26 03:54:54;;;;;;;0.63;0.63;;;;;;;2.78;100.00;91005.91;2012580;28;20038;-84
2024/03/26 03:55:55;;;;;;;0.70;0.70;;;;;;;2.77;100.00;91002.53;1996031;28;20037;-85
2024/03/26 03:56:57;;;;;;;0.80;0.70;;;;;;;2.86;100.00;90999.28;2024245;28;20029;-86
2024/03/26 03:57:58;;;;;;;0.68;0.68;;;;;;;2.89;100.00;90993.13;2033967;28;20446;-84
2024/03/26 03:58:59;;;;;;;0.60;0.60;;;;;;;2.87;100.00;90994.72;2028951;28;20063;-84
2024/03/26 04:00:00;;;;;;;0.60;0.60;;;;;;;2.91;100.00;90982.19;2026807;28;20037;-83
2024/03/26 04:01:01;;;;;;;0.52;0.52;;;;;;;2.98;100.00;90995.91;2040191;28;20035;-82
2024/03/26 04:02:02;;;;;;;1.17;0.57;;;;;;;2.96;100.00;90992.94;2041078;28;20049;-82
2024/03/26 04:03:04;;;;;;;0.60;0.60;;;;;;;3.02;100.00;90990.53;2049779;28;20454;-83
2024/03/26 04:04:05;;;;;;;0.77;0.65;;;;;;;2.99;100.00;90986.09;2073069;28;20162;-83
2024/03/26 04:05:06;;;;;;;0.88;0.80;;;;;;;2.95;100.00;90993.38;2070736;28;20029;-85
2024/03/26 04:06:07;;;;;;;0.75;0.52;;;;;;;2.93;100.00;90991.13;2080047;28;20154;-82
2024/03/26 04:07:08;;;;;;;0.60;0.60;;;;;;;3.00;100.00;90985.66;2097646;28;20031;-84
2024/03/26 04:08:09;;;;;;;0.50;0.50;;;;;;;3.00;100.00;90988.31;2089961;28;20033;-84
2024/03/26 04:09:11;;;;;;;0.50;0.50;;;;;;;3.09;100.00;90986.97;2095756;28;20028;-82
2024/03/26 04:10:12;;;;;;;0.50;0.50;;;;;;;3.13;100.00;90987.59;2089985;28;20044;-83
2024/03/26 04:11:13;;;;;;;0.80;0.70;;;;;;;3.22;100.00;90985.06;2081785;28;20108;-84
2024/03/26 04:12:14;;;;;;;0.52;0.52;;;;;;;3.24;100.00;90982.72;2081801;28;20033;-86
2024/03/26 04:13:15;;;;;;;0.65;0.65;;;;;;;3.13;100.00;90987.59;2090030;28;20103;-87
2024/03/26 04:14:16;;;;;;;0.50;0.50;;;;;;;3.09;100.00;90990.34;2076890;28;20025;-85
2024/03/26 04:15:17;;;;;;;0.60;0.60;;;;;;;3.08;100.00;90980.22;2089917;28;20016;-84
2024/03/26 04:16:18;;;;;;;0.60;0.60;;;;;;;3.08;100.00;90985.47;2098370;28;20036;-83
2024/03/26 04:17:19;;;;;;;0.60;0.60;;;;;;;3.09;100.00;90990.34;2089926;28;20108;-85
2024/03/26 04:18:20;;;;;;;0.70;0.60;;;;;;;3.13;100.00;90983.06;2081813;28;20082;-85
2024/03/26 04:19:22;;;;;;;0.55;0.50;;;;;;;3.02;100.00;90985.97;2081683;28;20037;-83
2024/03/26 04:20:23;;;;;;;0.57;0.57;;;;;;;3.13;100.00;90980.41;2081768;28;20025;-85
2024/03/26 04:21:24;;;;;;;0.50;0.50;;;;;;;3.11;100.00;90985.34;2089853;28;20385;-82
2024/03/26 04:22:25;;;;;;;1.35;0.63;;;;;;;3.13;100.00;90985.69;2089024;28;20052;-83
2024/03/26 04:23:26;;;;;;;0.50;0.50;;;;;;;3.17;100.00;90982.97;2089696;28;20105;-84
2024/03/26 04:24:27;;;;;;;0.82;0.70;;;;;;;3.16;100.00;90981.47;2089986;28;20074;-84
2024/03/26 04:25:28;;;;;;;0.60;0.60;;;;;;;3.22;100.00;90982.44;2089695;28;20178;-85
2024/03/26 04:26:29;;;;;;;0.93;0.80;;;;;;;3.17;100.00;90978.41;2082225;28;20466;-87
2024/03/26 04:27:30;;;;;;;1.08;0.70;;;;;;;3.14;100.00;90971.34;2089739;28;20025;-84
2024/03/26 04:28:31;;;;;;;0.40;0.40;;;;;;;3.18;100.00;90971.22;2087406;28;20021;-85
2024/03/26 04:29:32;;;;;;;0.80;0.80;;;;;;;3.09;100.00;90971.13;2089751;28;20021;-83
2024/03/26 04:30:33;;;;;;;0.50;0.50;;;;;;;3.02;100.00;90970.16;2088802;28;20142;-84
2024/03/26 04:31:34;;;;;;;0.68;0.68;;;;;;;3.04;100.00;90967.09;2089752;28;20370;-86
2024/03/26 04:32:35;;;;;;;0.60;0.60;;;;;;;3.05;100.00;90968.56;2100310;28;20039;-85
2024/03/26 04:33:36;;;;;;;0.80;0.80;;;;;;;3.10;100.00;90967.31;2089726;28;20025;-84
2024/03/26 04:34:37;;;;;;;0.90;0.80;;;;;;;2.92;100.00;90963.28;2098164;28;20035;-83
2024/03/26 04:35:38;;;;;;;1.00;0.82;;;;;;;2.93;100.00;90969.28;2098009;28;20075;-84
2024/03/26 04:36:39;;;;;;;1.10;0.90;;;;;;;3.15;100.00;90966.78;2087340;28;20060;-85
2024/03/26 04:37:40;;;;;;;0.80;0.80;;;;;;;3.26;100.00;90969.88;2089718;28;20118;-84
2024/03/26 04:38:41;;;;;;;1.15;0.90;;;;;;;3.28;100.00;90970.91;2106298;28;20526;-85
2024/03/26 04:39:43;;;;;;;0.85;0.85;;;;;;;3.28;100.00;90975.44;2106515;28;20032;-84
2024/03/26 04:40:46;;;;;;;0.90;0.80;;;;;;;3.22;100.00;90962.03;2089931;28;20070;-85
2024/03/26 04:41:47;;;;;;;0.75;0.75;;;;;;;3.31;100.00;90971.97;2082302;28;20083;-83
2024/03/26 04:42:48;;;;;;;1.00;0.80;;;;;;;3.27;100.00;90963.41;2089861;28;20033;-88
2024/03/26 04:43:49;;;;;;;0.98;0.98;;;;;;;3.19;100.00;90967.44;2097902;28;20415;-85
2024/03/26 04:44:51;;;;;;;0.70;0.70;;;;;;;3.18;100.00;90964.06;2079261;28;20128;-87
2024/03/26 04:45:53;;;;;;;1.00;0.73;;;;;;;3.24;100.00;90958.97;2097059;28;20024;-84
2024/03/26 04:46:54;;;;;;;0.73;0.73;;;;;;;3.22;100.00;90962.03;2077586;28;20069;-84
2024/03/26 04:47:55;;;;;;;1.02;0.80;;;;;;;3.30;100.00;90959.22;1993025;28;20180;-84
2024/03/26 04:48:56;;;;;;;0.60;0.60;;;;;;;3.36;100.00;90958.25;2012256;28;20147;-83
2024/03/26 04:49:58;;;;;;;0.98;0.82;;;;;;;3.52;100.00;90958.13;2017434;28;20082;-81
2024/03/26 04:50:59;;;;;;;0.70;0.70;;;;;;;3.40;100.00;90956.25;2012523;28;20037;-83